sensor_id;sensor_type;location;lat;lon;timestamp;temperature;humidity
17442;DHT22;8838;50.144;8.176;2022-07-05T00:01:17;15.10;99.90
17442;DHT22;8838;50.144;8.176;2022-07-05T00:03:45;15.10;99.90
17442;DHT22;8838;50.144;8.176;2022-07-05T00:06:12;15.10;99.90
17442;DHT22;8838;50.144;8.176;2022-07-05T00:08:39;14.90;99.90
17442;DHT22;8838;50.144;8.176;2022-07-05T00:11:06;14.70;99.90
17442;DHT22;8838;50.144;8.176;2022-07-05T00:13:33;14.60;99.90
17442;DHT22;8838;50.144;8.176;2022-07-05T00:16:00;14.40;99.90
17442;DHT22;8838;50.144;8.176;2022-07-05T00:18:26;14.30;99.90
17442;DHT22;8838;50.144;8.176;2022-07-05T00:20:55;14.30;99.90
17442;DHT22;8838;50.144;8.176;2022-07-05T00:23:22;14.30;99.90
17442;DHT22;8838;50.144;8.176;2022-07-05T00:25:48;14.30;99.90
17442;DHT22;8838;50.144;8.176;2022-07-05T00:28:15;14.30;99.90
17442;DHT22;8838;50.144;8.176;2022-07-05T00:30:42;14.30;99.90
17442;DHT22;8838;50.144;8.176;2022-07-05T00:33:09;14.40;99.90
17442;DHT22;8838;50.144;8.176;2022-07-05T00:35:36;14.30;99.90
17442;DHT22;8838;50.144;8.176;2022-07-05T00:38:04;14.20;99.90
17442;DHT22;8838;50.144;8.176;2022-07-05T00:40:31;14.10;99.90
17442;DHT22;8838;50.144;8.176;2022-07-05T00:42:58;14.10;99.90
17442;DHT22;8838;50.144;8.176;2022-07-05T00:45:25;14.20;99.90
17442;DHT22;8838;50.144;8.176;2022-07-05T00:47:52;14.10;99.90
17442;DHT22;8838;50.144;8.176;2022-07-05T00:50:19;14.30;99.90
17442;DHT22;8838;50.144;8.176;2022-07-05T00:52:46;14.40;99.90
17442;DHT22;8838;50.144;8.176;2022-07-05T00:55:15;14.30;99.90
17442;DHT22;8838;50.144;8.176;2022-07-05T00:57:42;14.10;99.90
17442;DHT22;8838;50.144;8.176;2022-07-05T01:00:10;14.10;99.90
17442;DHT22;8838;50.144;8.176;2022-07-05T01:02:37;14.00;99.90
17442;DHT22;8838;50.144;8.176;2022-07-05T01:05:05;14.00;99.90
17442;DHT22;8838;50.144;8.176;2022-07-05T01:07:31;14.00;99.90
17442;DHT22;8838;50.144;8.176;2022-07-05T01:09:58;14.00;99.90
17442;DHT22;8838;50.144;8.176;2022-07-05T01:12:27;13.80;99.90
17442;DHT22;8838;50.144;8.176;2022-07-05T01:14:54;13.80;99.90
17442;DHT22;8838;50.144;8.176;2022-07-05T01:17:22;13.70;99.90
17442;DHT22;8838;50.144;8.176;2022-07-05T01:19:49;13.70;99.90
17442;DHT22;8838;50.144;8.176;2022-07-05T01:22:18;13.70;99.90
17442;DHT22;8838;50.144;8.176;2022-07-05T01:24:47;13.80;99.90
17442;DHT22;8838;50.144;8.176;2022-07-05T01:27:14;13.70;99.90
17442;DHT22;8838;50.144;8.176;2022-07-05T01:29:42;13.60;99.90
17442;DHT22;8838;50.144;8.176;2022-07-05T01:32:09;13.60;99.90
17442;DHT22;8838;50.144;8.176;2022-07-05T01:34:39;13.50;99.90
17442;DHT22;8838;50.144;8.176;2022-07-05T01:37:07;13.60;99.90
17442;DHT22;8838;50.144;8.176;2022-07-05T01:39:34;13.80;99.90
17442;DHT22;8838;50.144;8.176;2022-07-05T01:42:03;13.80;99.90
17442;DHT22;8838;50.144;8.176;2022-07-05T01:44:31;13.80;99.90
17442;DHT22;8838;50.144;8.176;2022-07-05T01:47:02;13.80;99.90
17442;DHT22;8838;50.144;8.176;2022-07-05T01:49:32;13.70;99.90
17442;DHT22;8838;50.144;8.176;2022-07-05T01:52:04;13.50;99.90
17442;DHT22;8838;50.144;8.176;2022-07-05T01:54:32;13.30;99.90
17442;DHT22;8838;50.144;8.176;2022-07-05T01:56:59;13.10;99.90
17442;DHT22;8838;50.144;8.176;2022-07-05T01:59:28;13.00;99.90
17442;DHT22;8838;50.144;8.176;2022-07-05T02:01:55;13.10;99.90
17442;DHT22;8838;50.144;8.176;2022-07-05T02:04:22;13.00;99.90
17442;DHT22;8838;50.144;8.176;2022-07-05T02:06:49;13.00;99.90
17442;DHT22;8838;50.144;8.176;2022-07-05T02:09:15;13.00;99.90
17442;DHT22;8838;50.144;8.176;2022-07-05T02:11:42;13.00;99.90
17442;DHT22;8838;50.144;8.176;2022-07-05T02:14:09;12.90;99.90
17442;DHT22;8838;50.144;8.176;2022-07-05T02:16:38;13.00;99.90
17442;DHT22;8838;50.144;8.176;2022-07-05T02:19:05;13.10;99.90
17442;DHT22;8838;50.144;8.176;2022-07-05T02:21:32;13.20;99.90
17442;DHT22;8838;50.144;8.176;2022-07-05T02:23:59;13.30;99.90
17442;DHT22;8838;50.144;8.176;2022-07-05T02:26:26;13.30;99.90
17442;DHT22;8838;50.144;8.176;2022-07-05T02:28:53;13.10;99.90
17442;DHT22;8838;50.144;8.176;2022-07-05T02:31:20;13.00;99.90
17442;DHT22;8838;50.144;8.176;2022-07-05T02:33:48;13.00;99.90
17442;DHT22;8838;50.144;8.176;2022-07-05T02:36:15;13.00;99.90
17442;DHT22;8838;50.144;8.176;2022-07-05T02:38:42;12.90;99.90
17442;DHT22;8838;50.144;8.176;2022-07-05T02:41:10;12.80;99.90
17442;DHT22;8838;50.144;8.176;2022-07-05T02:43:38;12.70;99.90
17442;DHT22;8838;50.144;8.176;2022-07-05T02:46:06;12.60;99.90
17442;DHT22;8838;50.144;8.176;2022-07-05T02:48:35;12.60;99.90
17442;DHT22;8838;50.144;8.176;2022-07-05T02:51:04;12.60;99.90
17442;DHT22;8838;50.144;8.176;2022-07-05T02:53:31;12.50;99.90
17442;DHT22;8838;50.144;8.176;2022-07-05T02:55:59;12.50;99.90
17442;DHT22;8838;50.144;8.176;2022-07-05T02:58:26;12.70;99.90
17442;DHT22;8838;50.144;8.176;2022-07-05T03:00:54;12.80;99.90
17442;DHT22;8838;50.144;8.176;2022-07-05T03:03:21;12.80;99.90
17442;DHT22;8838;50.144;8.176;2022-07-05T03:05:47;12.80;99.90
17442;DHT22;8838;50.144;8.176;2022-07-05T03:08:16;12.80;99.90
17442;DHT22;8838;50.144;8.176;2022-07-05T03:10:43;12.70;99.90
17442;DHT22;8838;50.144;8.176;2022-07-05T03:13:10;12.60;99.90
17442;DHT22;8838;50.144;8.176;2022-07-05T03:15:37;12.60;99.90
17442;DHT22;8838;50.144;8.176;2022-07-05T03:18:04;12.60;99.90
17442;DHT22;8838;50.144;8.176;2022-07-05T03:20:31;12.40;99.90
17442;DHT22;8838;50.144;8.176;2022-07-05T03:22:58;12.20;99.90
17442;DHT22;8838;50.144;8.176;2022-07-05T03:25:26;12.20;99.90
17442;DHT22;8838;50.144;8.176;2022-07-05T03:27:53;12.10;99.90
17442;DHT22;8838;50.144;8.176;2022-07-05T03:30:20;12.10;99.90
17442;DHT22;8838;50.144;8.176;2022-07-05T03:32:48;12.10;99.90
17442;DHT22;8838;50.144;8.176;2022-07-05T03:35:15;12.10;99.90
17442;DHT22;8838;50.144;8.176;2022-07-05T03:37:42;12.20;99.90
17442;DHT22;8838;50.144;8.176;2022-07-05T03:40:09;12.20;99.90
17442;DHT22;8838;50.144;8.176;2022-07-05T03:42:38;12.20;99.90
17442;DHT22;8838;50.144;8.176;2022-07-05T03:45:06;12.20;99.90
17442;DHT22;8838;50.144;8.176;2022-07-05T03:47:33;12.30;99.90
17442;DHT22;8838;50.144;8.176;2022-07-05T03:49:59;12.40;99.90
17442;DHT22;8838;50.144;8.176;2022-07-05T03:52:26;12.40;99.90
17442;DHT22;8838;50.144;8.176;2022-07-05T03:54:53;12.50;99.90
17442;DHT22;8838;50.144;8.176;2022-07-05T03:57:20;12.60;99.90
17442;DHT22;8838;50.144;8.176;2022-07-05T03:59:49;12.80;99.90
17442;DHT22;8838;50.144;8.176;2022-07-05T04:02:16;12.90;99.90
17442;DHT22;8838;50.144;8.176;2022-07-05T04:04:42;12.90;99.90
17442;DHT22;8838;50.144;8.176;2022-07-05T04:07:09;12.90;99.90
17442;DHT22;8838;50.144;8.176;2022-07-05T04:09:37;12.90;99.90
17442;DHT22;8838;50.144;8.176;2022-07-05T04:12:05;12.90;99.90
17442;DHT22;8838;50.144;8.176;2022-07-05T04:14:32;13.00;99.90
17442;DHT22;8838;50.144;8.176;2022-07-05T04:17:00;13.00;99.90
17442;DHT22;8838;50.144;8.176;2022-07-05T04:19:27;13.00;99.90
17442;DHT22;8838;50.144;8.176;2022-07-05T04:21:54;12.90;99.90
17442;DHT22;8838;50.144;8.176;2022-07-05T04:24:20;12.80;99.90
17442;DHT22;8838;50.144;8.176;2022-07-05T04:26:47;12.80;99.90
17442;DHT22;8838;50.144;8.176;2022-07-05T04:29:14;12.90;99.90
17442;DHT22;8838;50.144;8.176;2022-07-05T04:31:41;12.90;99.90
17442;DHT22;8838;50.144;8.176;2022-07-05T04:34:09;13.00;99.90
17442;DHT22;8838;50.144;8.176;2022-07-05T04:36:36;13.00;99.90
17442;DHT22;8838;50.144;8.176;2022-07-05T04:39:06;13.10;99.90
17442;DHT22;8838;50.144;8.176;2022-07-05T04:41:33;13.20;99.90
17442;DHT22;8838;50.144;8.176;2022-07-05T04:44:00;13.30;99.90
17442;DHT22;8838;50.144;8.176;2022-07-05T04:46:27;13.40;99.90
17442;DHT22;8838;50.144;8.176;2022-07-05T04:48:54;13.30;99.90
17442;DHT22;8838;50.144;8.176;2022-07-05T04:51:23;13.30;99.90
17442;DHT22;8838;50.144;8.176;2022-07-05T04:53:49;13.40;99.90
17442;DHT22;8838;50.144;8.176;2022-07-05T04:56:16;13.40;99.90
17442;DHT22;8838;50.144;8.176;2022-07-05T04:58:43;13.50;99.90
17442;DHT22;8838;50.144;8.176;2022-07-05T05:01:10;13.60;99.90
17442;DHT22;8838;50.144;8.176;2022-07-05T05:03:38;13.70;99.90
17442;DHT22;8838;50.144;8.176;2022-07-05T05:06:05;13.70;99.90
17442;DHT22;8838;50.144;8.176;2022-07-05T05:08:34;13.80;99.90
17442;DHT22;8838;50.144;8.176;2022-07-05T05:11:01;13.80;99.90
17442;DHT22;8838;50.144;8.176;2022-07-05T05:13:27;13.90;99.90
17442;DHT22;8838;50.144;8.176;2022-07-05T05:15:54;13.90;99.90
17442;DHT22;8838;50.144;8.176;2022-07-05T05:18:21;14.00;99.90
17442;DHT22;8838;50.144;8.176;2022-07-05T05:20:52;14.00;99.90
17442;DHT22;8838;50.144;8.176;2022-07-05T05:23:20;14.10;99.90
17442;DHT22;8838;50.144;8.176;2022-07-05T05:25:48;14.00;99.90
17442;DHT22;8838;50.144;8.176;2022-07-05T05:28:15;14.00;99.90
17442;DHT22;8838;50.144;8.176;2022-07-05T05:30:42;14.10;99.90
17442;DHT22;8838;50.144;8.176;2022-07-05T05:33:09;14.20;99.90
17442;DHT22;8838;50.144;8.176;2022-07-05T05:35:36;14.40;99.90
17442;DHT22;8838;50.144;8.176;2022-07-05T05:38:03;14.50;99.90
17442;DHT22;8838;50.144;8.176;2022-07-05T05:40:30;14.60;99.90
17442;DHT22;8838;50.144;8.176;2022-07-05T05:43:00;14.80;99.90
17442;DHT22;8838;50.144;8.176;2022-07-05T05:45:27;14.90;99.90
17442;DHT22;8838;50.144;8.176;2022-07-05T05:47:55;15.00;99.90
17442;DHT22;8838;50.144;8.176;2022-07-05T05:50:23;15.20;99.90
17442;DHT22;8838;50.144;8.176;2022-07-05T05:52:51;15.30;99.90
17442;DHT22;8838;50.144;8.176;2022-07-05T05:55:19;15.50;99.90
17442;DHT22;8838;50.144;8.176;2022-07-05T05:57:47;15.60;99.90
17442;DHT22;8838;50.144;8.176;2022-07-05T06:00:16;15.70;99.90
17442;DHT22;8838;50.144;8.176;2022-07-05T06:02:43;15.90;99.90
17442;DHT22;8838;50.144;8.176;2022-07-05T06:05:11;16.00;99.90
17442;DHT22;8838;50.144;8.176;2022-07-05T06:07:49;16.20;99.90
17442;DHT22;8838;50.144;8.176;2022-07-05T06:10:18;16.30;99.90
17442;DHT22;8838;50.144;8.176;2022-07-05T06:12:45;16.50;99.90
17442;DHT22;8838;50.144;8.176;2022-07-05T06:15:12;16.60;99.90
17442;DHT22;8838;50.144;8.176;2022-07-05T06:17:40;16.70;99.90
17442;DHT22;8838;50.144;8.176;2022-07-05T06:20:09;16.90;99.90
17442;DHT22;8838;50.144;8.176;2022-07-05T06:22:36;17.00;99.90
17442;DHT22;8838;50.144;8.176;2022-07-05T06:25:03;17.20;99.90
17442;DHT22;8838;50.144;8.176;2022-07-05T06:27:31;17.30;99.90
17442;DHT22;8838;50.144;8.176;2022-07-05T06:29:58;17.40;99.90
17442;DHT22;8838;50.144;8.176;2022-07-05T06:32:24;17.50;99.90
17442;DHT22;8838;50.144;8.176;2022-07-05T06:34:53;17.60;99.90
17442;DHT22;8838;50.144;8.176;2022-07-05T06:37:19;17.70;99.90
17442;DHT22;8838;50.144;8.176;2022-07-05T06:39:46;17.80;99.90
17442;DHT22;8838;50.144;8.176;2022-07-05T06:42:13;17.80;99.90
17442;DHT22;8838;50.144;8.176;2022-07-05T06:44:40;18.00;99.90
17442;DHT22;8838;50.144;8.176;2022-07-05T06:47:07;18.10;99.90
17442;DHT22;8838;50.144;8.176;2022-07-05T06:49:34;18.20;99.90
17442;DHT22;8838;50.144;8.176;2022-07-05T06:52:03;18.30;99.90
17442;DHT22;8838;50.144;8.176;2022-07-05T06:54:30;18.40;99.90
17442;DHT22;8838;50.144;8.176;2022-07-05T06:56:57;18.60;99.90
17442;DHT22;8838;50.144;8.176;2022-07-05T06:59:24;18.70;99.90
17442;DHT22;8838;50.144;8.176;2022-07-05T07:01:51;18.90;99.90
17442;DHT22;8838;50.144;8.176;2022-07-05T07:04:18;18.90;99.90
17442;DHT22;8838;50.144;8.176;2022-07-05T07:06:45;19.00;99.90
17442;DHT22;8838;50.144;8.176;2022-07-05T07:09:13;19.10;99.90
17442;DHT22;8838;50.144;8.176;2022-07-05T07:11:47;19.30;99.90
17442;DHT22;8838;50.144;8.176;2022-07-05T07:14:14;19.50;99.90
17442;DHT22;8838;50.144;8.176;2022-07-05T07:16:41;19.80;99.90
17442;DHT22;8838;50.144;8.176;2022-07-05T07:19:08;20.10;99.90
17442;DHT22;8838;50.144;8.176;2022-07-05T07:21:36;20.40;99.90
17442;DHT22;8838;50.144;8.176;2022-07-05T07:24:03;20.60;99.90
17442;DHT22;8838;50.144;8.176;2022-07-05T07:26:31;20.80;99.90
17442;DHT22;8838;50.144;8.176;2022-07-05T07:29:18;20.90;99.90
17442;DHT22;8838;50.144;8.176;2022-07-05T07:31:45;21.00;99.90
17442;DHT22;8838;50.144;8.176;2022-07-05T07:34:12;21.10;99.90
17442;DHT22;8838;50.144;8.176;2022-07-05T07:36:40;21.30;99.90
17442;DHT22;8838;50.144;8.176;2022-07-05T07:39:06;21.50;99.90
17442;DHT22;8838;50.144;8.176;2022-07-05T07:41:35;21.70;99.90
17442;DHT22;8838;50.144;8.176;2022-07-05T07:44:02;21.80;99.90
17442;DHT22;8838;50.144;8.176;2022-07-05T07:46:28;21.90;99.90
17442;DHT22;8838;50.144;8.176;2022-07-05T07:48:55;22.10;99.90
17442;DHT22;8838;50.144;8.176;2022-07-05T07:51:22;22.40;99.90
17442;DHT22;8838;50.144;8.176;2022-07-05T07:53:49;22.80;99.90
17442;DHT22;8838;50.144;8.176;2022-07-05T07:56:16;23.10;99.90
17442;DHT22;8838;50.144;8.176;2022-07-05T07:58:44;23.50;99.90
17442;DHT22;8838;50.144;8.176;2022-07-05T08:01:12;23.80;99.90
17442;DHT22;8838;50.144;8.176;2022-07-05T08:03:39;24.00;99.90
17442;DHT22;8838;50.144;8.176;2022-07-05T08:06:07;23.90;99.90
17442;DHT22;8838;50.144;8.176;2022-07-05T08:08:36;23.90;99.90
17442;DHT22;8838;50.144;8.176;2022-07-05T08:11:03;23.80;99.90
17442;DHT22;8838;50.144;8.176;2022-07-05T08:13:31;24.00;99.90
17442;DHT22;8838;50.144;8.176;2022-07-05T08:15:59;24.00;99.90
17442;DHT22;8838;50.144;8.176;2022-07-05T08:18:26;24.20;99.90
17442;DHT22;8838;50.144;8.176;2022-07-05T08:21:10;24.70;99.90
17442;DHT22;8838;50.144;8.176;2022-07-05T08:23:55;25.20;99.90
17442;DHT22;8838;50.144;8.176;2022-07-05T08:26:22;25.60;99.90
17442;DHT22;8838;50.144;8.176;2022-07-05T08:28:48;25.80;99.90
17442;DHT22;8838;50.144;8.176;2022-07-05T08:31:17;26.40;99.90
17442;DHT22;8838;50.144;8.176;2022-07-05T08:33:44;27.00;99.90
17442;DHT22;8838;50.144;8.176;2022-07-05T08:36:10;27.50;99.90
17442;DHT22;8838;50.144;8.176;2022-07-05T08:38:37;27.80;99.90
17442;DHT22;8838;50.144;8.176;2022-07-05T08:41:07;27.00;99.90
17442;DHT22;8838;50.144;8.176;2022-07-05T08:43:35;26.30;99.90
17442;DHT22;8838;50.144;8.176;2022-07-05T08:46:04;26.00;99.90
17442;DHT22;8838;50.144;8.176;2022-07-05T08:48:36;26.00;99.90
17442;DHT22;8838;50.144;8.176;2022-07-05T08:51:10;26.80;99.90
17442;DHT22;8838;50.144;8.176;2022-07-05T08:53:37;27.10;99.90
17442;DHT22;8838;50.144;8.176;2022-07-05T08:56:07;27.10;99.90
17442;DHT22;8838;50.144;8.176;2022-07-05T08:58:34;26.60;99.90
17442;DHT22;8838;50.144;8.176;2022-07-05T09:01:01;26.00;99.90
17442;DHT22;8838;50.144;8.176;2022-07-05T09:03:32;25.50;99.90
17442;DHT22;8838;50.144;8.176;2022-07-05T09:06:01;25.40;99.90
17442;DHT22;8838;50.144;8.176;2022-07-05T09:08:30;25.70;99.90
17442;DHT22;8838;50.144;8.176;2022-07-05T09:11:00;26.20;99.90
17442;DHT22;8838;50.144;8.176;2022-07-05T09:13:27;26.30;99.90
17442;DHT22;8838;50.144;8.176;2022-07-05T09:15:54;25.60;99.90
17442;DHT22;8838;50.144;8.176;2022-07-05T09:18:41;24.90;99.90
17442;DHT22;8838;50.144;8.176;2022-07-05T09:21:19;24.70;99.90
17442;DHT22;8838;50.144;8.176;2022-07-05T09:23:54;25.70;99.90
17442;DHT22;8838;50.144;8.176;2022-07-05T09:26:29;26.50;99.90
17442;DHT22;8838;50.144;8.176;2022-07-05T09:28:57;27.20;99.90
17442;DHT22;8838;50.144;8.176;2022-07-05T09:31:29;27.50;99.90
17442;DHT22;8838;50.144;8.176;2022-07-05T09:34:06;27.80;99.90
17442;DHT22;8838;50.144;8.176;2022-07-05T09:36:52;28.70;99.90
17442;DHT22;8838;50.144;8.176;2022-07-05T09:39:37;29.10;99.90
17442;DHT22;8838;50.144;8.176;2022-07-05T09:42:12;28.90;99.90
17442;DHT22;8838;50.144;8.176;2022-07-05T09:44:41;28.30;99.90
17442;DHT22;8838;50.144;8.176;2022-07-05T09:47:09;28.40;99.90
17442;DHT22;8838;50.144;8.176;2022-07-05T09:49:41;28.90;99.10
17442;DHT22;8838;50.144;8.176;2022-07-05T09:52:10;29.20;98.40
17442;DHT22;8838;50.144;8.176;2022-07-05T09:54:37;29.70;98.30
17442;DHT22;8838;50.144;8.176;2022-07-05T09:57:04;29.90;97.80
17442;DHT22;8838;50.144;8.176;2022-07-05T09:59:31;29.80;97.80
17442;DHT22;8838;50.144;8.176;2022-07-05T10:01:58;29.10;96.50
17442;DHT22;8838;50.144;8.176;2022-07-05T10:04:25;28.00;97.50
17442;DHT22;8838;50.144;8.176;2022-07-05T10:06:52;27.60;98.40
17442;DHT22;8838;50.144;8.176;2022-07-05T10:09:20;27.90;98.50
17442;DHT22;8838;50.144;8.176;2022-07-05T10:11:47;28.30;97.30
17442;DHT22;8838;50.144;8.176;2022-07-05T10:14:18;28.70;97.60
17442;DHT22;8838;50.144;8.176;2022-07-05T10:16:57;28.20;97.10
17442;DHT22;8838;50.144;8.176;2022-07-05T10:19:29;27.80;97.90
17442;DHT22;8838;50.144;8.176;2022-07-05T10:21:59;28.00;96.90
17442;DHT22;8838;50.144;8.176;2022-07-05T10:24:32;28.70;96.70
17442;DHT22;8838;50.144;8.176;2022-07-05T10:27:00;29.00;96.90
17442;DHT22;8838;50.144;8.176;2022-07-05T10:29:29;29.20;96.60
17442;DHT22;8838;50.144;8.176;2022-07-05T10:31:57;28.80;96.70
17442;DHT22;8838;50.144;8.176;2022-07-05T10:34:24;28.10;97.10
17442;DHT22;8838;50.144;8.176;2022-07-05T10:36:51;27.80;97.20
17442;DHT22;8838;50.144;8.176;2022-07-05T10:39:18;28.30;96.70
17442;DHT22;8838;50.144;8.176;2022-07-05T10:41:51;28.90;94.60
17442;DHT22;8838;50.144;8.176;2022-07-05T10:44:26;29.40;93.10
17442;DHT22;8838;50.144;8.176;2022-07-05T10:47:07;29.70;93.10
17442;DHT22;8838;50.144;8.176;2022-07-05T10:49:36;30.00;92.60
17442;DHT22;8838;50.144;8.176;2022-07-05T10:52:04;30.00;93.10
17442;DHT22;8838;50.144;8.176;2022-07-05T10:54:31;29.90;93.00
17442;DHT22;8838;50.144;8.176;2022-07-05T10:57:23;30.00;92.30
17442;DHT22;8838;50.144;8.176;2022-07-05T11:00:06;28.90;92.30
17442;DHT22;8838;50.144;8.176;2022-07-05T11:02:33;29.20;92.40
17442;DHT22;8838;50.144;8.176;2022-07-05T11:05:00;29.40;91.30
17442;DHT22;8838;50.144;8.176;2022-07-05T11:07:57;29.50;91.70
17442;DHT22;8838;50.144;8.176;2022-07-05T11:10:24;29.80;91.00
17442;DHT22;8838;50.144;8.176;2022-07-05T11:12:53;30.50;91.50
17442;DHT22;8838;50.144;8.176;2022-07-05T11:15:19;30.90;91.50
17442;DHT22;8838;50.144;8.176;2022-07-05T11:17:46;31.00;90.70
17442;DHT22;8838;50.144;8.176;2022-07-05T11:20:15;31.10;90.00
17442;DHT22;8838;50.144;8.176;2022-07-05T11:25:39;31.60;89.40
17442;DHT22;8838;50.144;8.176;2022-07-05T11:28:17;31.40;87.30
17442;DHT22;8838;50.144;8.176;2022-07-05T11:30:45;31.20;88.40
17442;DHT22;8838;50.144;8.176;2022-07-05T11:33:26;30.70;88.80
17442;DHT22;8838;50.144;8.176;2022-07-05T11:35:53;30.60;88.30
17442;DHT22;8838;50.144;8.176;2022-07-05T11:38:21;30.60;90.20
17442;DHT22;8838;50.144;8.176;2022-07-05T11:40:48;30.90;90.00
17442;DHT22;8838;50.144;8.176;2022-07-05T11:43:25;31.10;88.60
17442;DHT22;8838;50.144;8.176;2022-07-05T11:45:56;30.50;89.90
17442;DHT22;8838;50.144;8.176;2022-07-05T11:48:24;29.40;90.10
17442;DHT22;8838;50.144;8.176;2022-07-05T11:50:52;28.90;90.60
17442;DHT22;8838;50.144;8.176;2022-07-05T11:53:26;29.40;91.20
17442;DHT22;8838;50.144;8.176;2022-07-05T11:55:54;29.80;89.60
17442;DHT22;8838;50.144;8.176;2022-07-05T11:58:30;30.20;88.20
17442;DHT22;8838;50.144;8.176;2022-07-05T12:00:57;30.50;90.60
17442;DHT22;8838;50.144;8.176;2022-07-05T12:03:24;30.10;90.90
17442;DHT22;8838;50.144;8.176;2022-07-05T12:05:51;29.50;91.60
17442;DHT22;8838;50.144;8.176;2022-07-05T12:08:21;28.70;91.40
17442;DHT22;8838;50.144;8.176;2022-07-05T12:10:49;28.00;91.70
17442;DHT22;8838;50.144;8.176;2022-07-05T12:13:44;28.10;91.30
17442;DHT22;8838;50.144;8.176;2022-07-05T12:16:12;28.60;90.90
17442;DHT22;8838;50.144;8.176;2022-07-05T12:18:49;28.70;91.60
17442;DHT22;8838;50.144;8.176;2022-07-05T12:21:16;28.20;91.50
17442;DHT22;8838;50.144;8.176;2022-07-05T12:23:46;27.80;92.00
17442;DHT22;8838;50.144;8.176;2022-07-05T12:26:14;27.40;93.10
17442;DHT22;8838;50.144;8.176;2022-07-05T12:28:42;27.20;93.70
17442;DHT22;8838;50.144;8.176;2022-07-05T12:31:19;26.90;93.60
17442;DHT22;8838;50.144;8.176;2022-07-05T12:33:46;27.00;93.60
17442;DHT22;8838;50.144;8.176;2022-07-05T12:36:14;27.30;93.70
17442;DHT22;8838;50.144;8.176;2022-07-05T12:38:41;27.60;93.50
17442;DHT22;8838;50.144;8.176;2022-07-05T12:41:08;27.40;93.00
17442;DHT22;8838;50.144;8.176;2022-07-05T12:43:49;27.20;93.30
17442;DHT22;8838;50.144;8.176;2022-07-05T12:46:17;26.90;93.50
17442;DHT22;8838;50.144;8.176;2022-07-05T12:48:50;26.70;94.50
17442;DHT22;8838;50.144;8.176;2022-07-05T12:51:31;26.80;94.90
17442;DHT22;8838;50.144;8.176;2022-07-05T12:54:00;27.20;94.20
17442;DHT22;8838;50.144;8.176;2022-07-05T12:56:49;27.10;93.50
17442;DHT22;8838;50.144;8.176;2022-07-05T12:59:33;26.90;93.50
17442;DHT22;8838;50.144;8.176;2022-07-05T13:02:02;26.70;94.50
17442;DHT22;8838;50.144;8.176;2022-07-05T13:04:29;26.70;95.50
17442;DHT22;8838;50.144;8.176;2022-07-05T13:06:58;26.90;95.50
17442;DHT22;8838;50.144;8.176;2022-07-05T13:09:33;27.00;95.70
17442;DHT22;8838;50.144;8.176;2022-07-05T13:12:10;26.90;94.40
17442;DHT22;8838;50.144;8.176;2022-07-05T13:14:40;26.80;95.60
17442;DHT22;8838;50.144;8.176;2022-07-05T13:17:09;27.20;95.80
17442;DHT22;8838;50.144;8.176;2022-07-05T13:19:38;27.70;96.20
17442;DHT22;8838;50.144;8.176;2022-07-05T13:22:05;28.10;94.90
17442;DHT22;8838;50.144;8.176;2022-07-05T13:24:32;28.30;94.70
17442;DHT22;8838;50.144;8.176;2022-07-05T13:27:00;28.20;94.30
17442;DHT22;8838;50.144;8.176;2022-07-05T13:29:27;28.20;94.50
17442;DHT22;8838;50.144;8.176;2022-07-05T13:31:54;27.90;93.80
17442;DHT22;8838;50.144;8.176;2022-07-05T13:34:22;27.60;93.90
17442;DHT22;8838;50.144;8.176;2022-07-05T13:36:51;27.40;94.80
17442;DHT22;8838;50.144;8.176;2022-07-05T13:39:19;27.20;94.90
17442;DHT22;8838;50.144;8.176;2022-07-05T13:41:47;26.90;95.00
17442;DHT22;8838;50.144;8.176;2022-07-05T13:44:14;26.90;95.60
17442;DHT22;8838;50.144;8.176;2022-07-05T13:46:40;27.10;95.70
17442;DHT22;8838;50.144;8.176;2022-07-05T13:49:07;27.50;95.70
17442;DHT22;8838;50.144;8.176;2022-07-05T13:51:35;27.70;94.60
17442;DHT22;8838;50.144;8.176;2022-07-05T13:54:03;27.90;95.50
17442;DHT22;8838;50.144;8.176;2022-07-05T13:56:30;27.50;94.00
17442;DHT22;8838;50.144;8.176;2022-07-05T13:58:58;27.10;95.10
17442;DHT22;8838;50.144;8.176;2022-07-05T14:01:25;26.80;94.70
17442;DHT22;8838;50.144;8.176;2022-07-05T14:03:54;26.60;95.10
17442;DHT22;8838;50.144;8.176;2022-07-05T14:06:22;26.40;95.40
17442;DHT22;8838;50.144;8.176;2022-07-05T14:08:50;26.30;96.50
17442;DHT22;8838;50.144;8.176;2022-07-05T14:11:17;26.10;95.80
17442;DHT22;8838;50.144;8.176;2022-07-05T14:13:44;26.00;96.30
17442;DHT22;8838;50.144;8.176;2022-07-05T14:16:11;26.30;97.10
17442;DHT22;8838;50.144;8.176;2022-07-05T14:18:38;26.60;96.10
17442;DHT22;8838;50.144;8.176;2022-07-05T14:21:05;26.80;95.70
17442;DHT22;8838;50.144;8.176;2022-07-05T14:23:32;27.00;96.20
17442;DHT22;8838;50.144;8.176;2022-07-05T14:26:00;26.80;96.70
17442;DHT22;8838;50.144;8.176;2022-07-05T14:28:29;26.90;97.50
17442;DHT22;8838;50.144;8.176;2022-07-05T14:30:56;27.00;96.50
17442;DHT22;8838;50.144;8.176;2022-07-05T14:33:23;27.30;96.30
17442;DHT22;8838;50.144;8.176;2022-07-05T14:35:50;27.40;95.80
17442;DHT22;8838;50.144;8.176;2022-07-05T14:38:16;27.60;95.50
17442;DHT22;8838;50.144;8.176;2022-07-05T14:40:43;27.90;95.80
17442;DHT22;8838;50.144;8.176;2022-07-05T14:43:11;28.20;95.70
17442;DHT22;8838;50.144;8.176;2022-07-05T14:45:38;28.10;94.80
17442;DHT22;8838;50.144;8.176;2022-07-05T14:48:05;28.10;95.10
17442;DHT22;8838;50.144;8.176;2022-07-05T14:50:32;28.20;95.50
17442;DHT22;8838;50.144;8.176;2022-07-05T14:52:59;28.30;95.00
17442;DHT22;8838;50.144;8.176;2022-07-05T14:55:31;28.30;94.90
17442;DHT22;8838;50.144;8.176;2022-07-05T14:57:58;28.30;94.90
17442;DHT22;8838;50.144;8.176;2022-07-05T15:00:26;28.40;95.70
17442;DHT22;8838;50.144;8.176;2022-07-05T15:02:53;28.10;94.30
17442;DHT22;8838;50.144;8.176;2022-07-05T15:05:20;27.50;95.20
17442;DHT22;8838;50.144;8.176;2022-07-05T15:07:47;27.30;95.40
17442;DHT22;8838;50.144;8.176;2022-07-05T15:10:14;27.30;96.20
17442;DHT22;8838;50.144;8.176;2022-07-05T15:12:41;27.10;96.20
17442;DHT22;8838;50.144;8.176;2022-07-05T15:15:08;26.60;96.20
17442;DHT22;8838;50.144;8.176;2022-07-05T15:17:37;26.40;96.60
17442;DHT22;8838;50.144;8.176;2022-07-05T15:20:04;26.40;96.90
17442;DHT22;8838;50.144;8.176;2022-07-05T15:22:31;26.50;96.60
17442;DHT22;8838;50.144;8.176;2022-07-05T15:24:58;26.40;97.20
17442;DHT22;8838;50.144;8.176;2022-07-05T15:27:25;26.20;97.30
17442;DHT22;8838;50.144;8.176;2022-07-05T15:29:56;26.20;97.90
17442;DHT22;8838;50.144;8.176;2022-07-05T15:32:23;26.00;97.40
17442;DHT22;8838;50.144;8.176;2022-07-05T15:34:52;25.80;97.00
17442;DHT22;8838;50.144;8.176;2022-07-05T15:37:18;25.60;97.90
17442;DHT22;8838;50.144;8.176;2022-07-05T15:39:45;25.50;98.10
17442;DHT22;8838;50.144;8.176;2022-07-05T15:42:12;25.50;98.30
17442;DHT22;8838;50.144;8.176;2022-07-05T15:44:40;25.40;98.30
17442;DHT22;8838;50.144;8.176;2022-07-05T15:47:07;25.40;98.50
17442;DHT22;8838;50.144;8.176;2022-07-05T15:49:35;25.50;98.70
17442;DHT22;8838;50.144;8.176;2022-07-05T15:52:04;25.80;98.30
17442;DHT22;8838;50.144;8.176;2022-07-05T15:54:32;26.00;97.50
17442;DHT22;8838;50.144;8.176;2022-07-05T15:57:00;26.00;98.10